Flight Track Log - Related Links

Times and Time Zones

All times are in EDT time to prevent confusion due to time zone crossing. See the UAL4553 flight status page for this flight to view local times or setup timezone preferences in your user account.

Time Position Orientation Groundspeed Altitude Reporting Facility
EDT Latitude Longitude Course Direction KTS MPH feet Rate Location/Type
Sun 01:35:24 PM 35.9011 -78.7717 270° West 203 234 1,200  Level Washington Center
Sun 01:36:37 PM 35.9686 -78.7358 23° Northeast 239 275 3,700 2,314 Climbing Washington Center
Sun 01:37:44 PM 36.0344 -78.7794 332° Northwest 260 299 6,600 1,872 Climbing Washington Center
Sun 01:38:00 PM 35.8368 -79.2490 263° West  Level FlightAware Approximate
Sun 01:38:42 PM 36.0406 -78.8569 276° West 247 284 7,600  Level Washington Center
Sun 01:39:00 PM 35.8261 -79.3653 262° West  Level FlightAware Approximate
Sun 01:39:37 PM 36.0097 -78.9225 240° Southwest 264 304 9,400  Level Washington Center
Sun 01:40:00 PM 35.8167 -79.4817 270° West  Level FlightAware Approximate
Sun 01:40:37 PM 35.9739 -79.0056 242° Southwest 264 304 11,200  Level Washington Center
Sun 01:41:35 PM 35.9317 -79.0936 239° Southwest 285 328 12,700 1,462 Climbing Washington Center
Sun 01:42:36 PM 35.8872 -79.1889 240° Southwest 309 356 14,100 1,377 Climbing Washington Center
Sun 01:43:37 PM 35.8469 -79.2769 241° Southwest 322 371 15,500 1,406 Climbing Washington Center
Sun 01:45:31 PM 35.8197 -79.4956 261° West 332 382 18,200 1,483 Climbing Atlanta Center
Sun 01:46:31 PM 35.8031 -79.6067 260° West 337 388 19,800 1,563 Climbing Atlanta Center
Sun 01:47:30 PM 35.7842 -79.7228 259° West 332 382 21,300 1,350 Climbing Atlanta Center
Sun 01:48:31 PM 35.7669 -79.8261 258° West 332 382 22,500 1,190 Climbing Atlanta Center
Sun 01:49:31 PM 35.7458 -79.9397 257° West 339 390 23,700 1,200 Climbing Atlanta Center
Sun 01:50:31 PM 35.7267 -80.0558 259° West 344 396 24,900 1,250 Climbing Atlanta Center
Sun 01:51:31 PM 35.7031 -80.1694 256° West 344 396 26,200 1,200 Climbing Atlanta Center
Sun 01:52:31 PM 35.6839 -80.2856 259° West 344 396 27,300 1,050 Climbing Atlanta Center
Sun 01:53:31 PM 35.6581 -80.3992 254° West 344 396 28,300 1,000 Climbing Atlanta Center
Sun 01:54:31 PM 35.6236 -80.5028 248° West 344 396 29,300 1,000 Climbing Atlanta Center
Sun 01:55:31 PM 35.5831 -80.6219 247° West 339 390 30,300 1,000 Climbing Atlanta Center
Sun 01:56:31 PM 35.5694 -80.7375 262° West 339 390 31,300 1,000 Climbing Atlanta Center
Sun 01:57:31 PM 35.5558 -80.8531 262° West 339 390 32,300 1,000 Climbing Atlanta Center
Sun 01:58:31 PM 35.5422 -80.9683 262° West 344 396 33,300 1,000 Climbing Atlanta Center
Sun 01:59:31 PM 35.5261 -81.0839 260° West 344 396 34,300 950 Climbing Atlanta Center
Sun 02:00:31 PM 35.5161 -81.1861 263° West 349 402 35,200 850 Climbing Atlanta Center
Sun 02:01:31 PM 35.5019 -81.2964 261° West 349 402 36,000 400 Climbing Atlanta Center
Sun 02:02:31 PM 35.4878 -81.4142 262° West 354 407 36,000  Level Atlanta Center
Sun 02:03:31 PM 35.4736 -81.5319 262° West 354 407 36,000  Level Atlanta Center
Sun 02:04:31 PM 35.4575 -81.6650 262° West 354 407 36,000  Level Atlanta Center
Sun 02:05:31 PM 35.4431 -81.7878 262° West 359 413 36,000  Level Atlanta Center
Sun 02:06:31 PM 35.4264 -81.9106 261° West 359 413 36,000  Level Atlanta Center
Sun 02:07:31 PM 35.4117 -82.0256 261° West 353 406 36,000  Level Atlanta Center
Sun 02:08:31 PM 35.3969 -82.1406 261° West 353 406 36,000  Level Atlanta Center
Sun 02:09:30 PM 35.3819 -82.2556 261° West 353 406 36,000  Level Atlanta Center
Sun 02:10:31 PM 35.3669 -82.3756 261° West 353 406 36,000  Level Atlanta Center
Sun 02:11:31 PM 35.3497 -82.4956 260° West 353 406 36,000  Level Atlanta Center
Sun 02:12:31 PM 35.3325 -82.6156 260° West 353 406 36,000  Level Atlanta Center
Sun 02:13:31 PM 35.3169 -82.7331 261° West 353 406 36,000  Level Atlanta Center
Sun 02:14:31 PM 35.2994 -82.8503 260° West 353 406 36,000  Level Atlanta Center
Sun 02:15:31 PM 35.2839 -82.9625 260° West 353 406 36,000  Level Atlanta Center
Sun 02:16:31 PM 35.2681 -83.0797 261° West 353 406 36,000  Level Atlanta Center
Sun 02:17:31 PM 35.2522 -83.1969 261° West 353 406 36,000  Level Atlanta Center
Sun 02:18:31 PM 35.2383 -83.3014 261° West 353 406 36,000  Level Atlanta Center
Sun 02:19:31 PM 35.2200 -83.4133 259° West 353 406 36,000  Level Atlanta Center
Sun 02:20:31 PM 35.2039 -83.5303 260° West 353 406 36,000  Level Atlanta Center
Sun 02:21:31 PM 35.1878 -83.6500 261° West 353 406 36,000  Level Atlanta Center
Sun 02:22:31 PM 35.1714 -83.7644 260° West 353 406 36,000  Level Atlanta Center
Sun 02:23:31 PM 35.1547 -83.8839 260° West 353 406 36,000  Level Atlanta Center
Sun 02:24:31 PM 35.1361 -84.0006 259° West 353 406 36,000  Level Atlanta Center
Sun 02:25:31 PM 35.1194 -84.1175 260° West 353 406 36,000  Level Atlanta Center
Sun 02:26:31 PM 35.1028 -84.2317 260° West 353 406 36,000  Level Atlanta Center
Sun 02:27:31 PM 35.0836 -84.3458 258° West 353 406 36,000  Level Atlanta Center
Sun 02:28:31 PM 35.0667 -84.4625 260° West 353 406 36,000  Level Atlanta Center
Sun 02:29:31 PM 35.0517 -84.5767 261° West 353 406 36,000  Level Atlanta Center
Sun 02:30:31 PM 35.0322 -84.6933 259° West 353 406 36,000  Level Atlanta Center
Sun 02:31:31 PM 35.0147 -84.8122 260° West 353 406 36,000  Level Atlanta Center
Sun 02:32:31 PM 34.9953 -84.9286 259° West 353 406 36,000  Level Atlanta Center
Sun 02:33:31 PM 34.9775 -85.0503 260° West 353 406 36,000  Level Atlanta Center
Sun 02:34:30 PM 34.9494 -85.1664 254° West 358 412 36,000  Level Atlanta Center
Sun 02:35:31 PM 34.8817 -85.2667 231° Southwest 344 396 36,000  Level Atlanta Center
Sun 02:36:31 PM 34.8183 -85.3544 229° Southwest 344 396 36,000  Level Atlanta Center
Sun 02:37:31 PM 34.7525 -85.4419 228° Southwest 356 410 36,000  Level Atlanta Center
Sun 02:38:30 PM 34.6869 -85.5317 228° Southwest 356 410 36,000  Level Atlanta Center
Sun 02:39:31 PM 34.6253 -85.6214 230° Southwest 361 415 36,000  Level Atlanta Center
Sun 02:40:31 PM 34.5594 -85.7086 228° Southwest 356 410 36,000  Level Atlanta Center
Sun 02:41:31 PM 34.4933 -85.7981 228° Southwest 356 410 36,000  Level Atlanta Center
Sun 02:42:31 PM 34.4294 -85.8847 228° Southwest 356 410 36,000  Level Atlanta Center
Sun 02:43:31 PM 34.3614 -85.9739 227° Southwest 362 417 36,000  Level Atlanta Center
Sun 02:44:31 PM 34.2931 -86.0628 227° Southwest 362 417 36,000  Level Atlanta Center
Sun 02:45:31 PM 34.2269 -86.1567 230° Southwest 362 417 36,000  Level Atlanta Center
Sun 02:46:31 PM 34.1586 -86.2453 227° Southwest 362 417 36,000  Level Atlanta Center
Sun 02:47:31 PM 34.0900 -86.3364 228° Southwest 362 417 36,000  Level Atlanta Center
Sun 02:48:31 PM 34.0236 -86.4272 229° Southwest 362 417 36,000  Level Atlanta Center
Sun 02:49:31 PM 33.9572 -86.5181 229° Southwest 362 417 36,000  Level Atlanta Center
Sun 02:50:31 PM 33.8886 -86.6064 227° Southwest 362 417 36,000  Level Atlanta Center
Sun 02:51:31 PM 33.8219 -86.6967 228° Southwest 362 417 36,000  Level Atlanta Center
Sun 02:52:31 PM 33.7531 -86.7872 228° Southwest 356 410 36,000  Level Atlanta Center
Sun 02:53:31 PM 33.6864 -86.8772 228° Southwest 361 415 36,000  Level Atlanta Center
Sun 02:54:31 PM 33.6422 -86.9808 243° Southwest 361 415 36,000  Level Atlanta Center
Sun 02:55:31 PM 33.6019 -87.0942 247° West 356 410 36,000  Level Atlanta Center
Sun 02:56:31 PM 33.5636 -87.2047 247° West 362 417 36,000  Level Atlanta Center
Sun 02:57:31 PM 33.5272 -87.3156 249° West 367 422 36,000  Level Atlanta Center
Sun 03:01:09 PM 33.3869 -87.7175 247° West 355 409 36,000  Level Memphis Center
Sun 03:02:09 PM 33.3475 -87.8306 247° West 366 421 36,000  Level Memphis Center
Sun 03:03:09 PM 33.3100 -87.9411 248° West 366 421 36,000  Level Memphis Center
Sun 03:04:09 PM 33.2706 -88.0539 247° West 366 421 36,000  Level Memphis Center
Sun 03:05:09 PM 33.2289 -88.1694 247° West 371 427 36,000  Level Memphis Center
Sun 03:06:09 PM 33.1972 -88.2694 249° West 371 427 36,000  Level Memphis Center
Sun 03:07:09 PM 33.1572 -88.3844 247° West 371 427 36,000  Level Memphis Center
Sun 03:08:09 PM 33.1172 -88.5019 248° West 377 434 36,000  Level Memphis Center
Sun 03:09:09 PM 33.0750 -88.6144 246° West 377 434 36,000  Level Memphis Center
Sun 03:10:09 PM 33.0350 -88.7317 248° West 382 440 36,000  Level Memphis Center
Sun 03:11:09 PM 32.9944 -88.8439 247° West 377 434 36,000  Level Memphis Center
Sun 03:12:09 PM 32.9500 -88.9658 247° West 377 434 36,000  Level Memphis Center
Sun 03:13:09 PM 32.9117 -89.0756 247° West 377 434 36,000  Level Memphis Center
Sun 03:14:09 PM 32.8708 -89.1872 246° West 377 434 36,000  Level Memphis Center
Sun 03:15:09 PM 32.8303 -89.2992 247° West 377 434 36,000  Level Memphis Center
Sun 03:16:09 PM 32.7872 -89.4083 245° Southwest 377 434 36,000  Level Memphis Center
Sun 03:17:09 PM 32.7464 -89.5200 247° West 377 434 36,000  Level Memphis Center
Sun 03:18:09 PM 32.7053 -89.6289 246° West 377 434 36,000  Level Memphis Center
Sun 03:19:09 PM 32.6703 -89.7281 247° West 377 434 36,000  Level Memphis Center
Sun 03:20:09 PM 32.6292 -89.8392 246° West 377 434 36,000  Level Memphis Center
Sun 03:21:09 PM 32.5878 -89.9481 246° West 372 428 36,000  Level Memphis Center
Sun 03:22:09 PM 32.5483 -90.0567 247° West 367 422 36,000  Level Memphis Center
Sun 03:23:09 PM 32.5089 -90.1628 246° West 367 422 36,000  Level Memphis Center
Sun 03:24:09 PM 32.4569 -90.2636 239° Southwest 362 417 36,000  Level Memphis Center
Sun 03:25:09 PM 32.4025 -90.3647 237° Southwest 362 417 36,000  Level Memphis Center
Sun 03:26:09 PM 32.3525 -90.4656 240° Southwest 362 417 36,000  Level Memphis Center
Sun 03:27:09 PM 32.2917 -90.5786 238° Southwest 362 417 36,000  Level Memphis Center
Sun 03:28:09 PM 32.2394 -90.6792 238° Southwest 367 422 36,000  Level Memphis Center
Sun 03:29:09 PM 32.1869 -90.7794 238° Southwest 367 422 36,000  Level Memphis Center
Sun 03:30:09 PM 32.1322 -90.8800 237° Southwest 367 422 36,000  Level Memphis Center
Sun 03:30:38 PM 32.1169 -90.9128 241° Southwest 370 426 36,000  Level Houston Center
Sun 03:31:40 PM 32.0489 -91.0419 238° Southwest 384 442 36,000  Level Houston Center
Sun 03:32:42 PM 31.9911 -91.1486 237° Southwest 388 447 36,000  Level Houston Center
Sun 03:33:44 PM 31.9336 -91.2539 237° Southwest 383 441 36,000  Level Houston Center
Sun 03:34:46 PM 31.8792 -91.3592 239° Southwest 379 436 36,000  Level Houston Center
Sun 03:35:48 PM 31.8225 -91.4617 237° Southwest 374 430 36,000  Level Houston Center
Sun 03:36:50 PM 31.7689 -91.5625 238° Southwest 365 420 36,000  Level Houston Center
Sun 03:37:52 PM 31.7061 -91.6792 238° Southwest 354 407 36,000  Level Houston Center
Sun 03:38:55 PM 31.6531 -91.7767 237° Southwest 354 407 36,000  Level Houston Center
Sun 03:39:57 PM 31.6017 -91.8728 238° Southwest 349 402 36,000  Level Houston Center
Sun 03:40:59 PM 31.5492 -91.9683 237° Southwest 348 400 36,000  Level Houston Center
Sun 03:42:01 PM 31.4928 -92.0689 237° Southwest 347 399 36,000  Level Houston Center
Sun 03:43:03 PM 31.4419 -92.1631 238° Southwest 344 396 36,000  Level Houston Center
Sun 03:44:05 PM 31.3906 -92.2569 237° Southwest 343 395 36,000  Level Houston Center
Sun 03:45:07 PM 31.3389 -92.3508 237° Southwest 343 395 36,000  Level Houston Center
Sun 03:46:09 PM 31.2767 -92.4625 237° Southwest 343 395 36,000  Level Houston Center
Sun 03:47:11 PM 31.2233 -92.5558 236° Southwest 345 397 36,000  Level Houston Center
Sun 03:48:14 PM 31.1731 -92.6506 238° Southwest 344 396 36,000  Level Houston Center
Sun 03:49:16 PM 31.1206 -92.7417 236° Southwest 340 391 36,000  Level Houston Center
Sun 03:50:18 PM 31.0686 -92.8358 237° Southwest 343 395 36,000 -48 Level Houston Center
Sun 03:51:20 PM 31.0461 -92.9597 258° West 334 384 35,900  Descending Houston Center
Sun 03:52:22 PM 31.0481 -93.0686 271° West 338 389 36,000 -48 Climbing Houston Center
Sun 03:53:24 PM 31.0453 -93.1758 268° West 335 386 35,800 -677 Descending Houston Center
Sun 03:54:26 PM 30.9908 -93.2653 235° Southwest 342 394 34,600 -1,210 Descending Houston Center
Sun 03:55:28 PM 30.9269 -93.3525 230° Southwest 352 405 33,300 -1,296 Descending Houston Center
Sun 03:56:31 PM 30.8631 -93.4414 230° Southwest 358 412 31,900 -1,839 Descending Houston Center
Sun 03:57:32 PM 30.7861 -93.5503 231° Southwest 364 419 29,500 -2,177 Descending Houston Center
Sun 03:58:35 PM 30.7200 -93.6419 230° Southwest 371 427 27,400 -1,968 Descending Houston Center
Sun 03:59:37 PM 30.6533 -93.7356 230° Southwest 379 436 25,400 -1,935 Descending Houston Center
Sun 04:00:39 PM 30.5850 -93.8306 230° Southwest 386 444 23,400 -2,198 Descending Houston Center
Sun 04:01:18 PM 30.5250 -93.9136 230° Southwest 401 461 21,700 -2,419 Descending Houston Center
Sun 04:01:41 PM 30.4994 -93.9500 231° Southwest 403 464 20,900 -1,976 Descending Houston Center
Sun 04:02:43 PM 30.4308 -94.0431 229° Southwest 386 444 18,900 -1,984 Descending Houston Center
Sun 04:03:45 PM 30.3650 -94.1339 230° Southwest 372 428 16,800 -2,102 Descending Houston Center
Sun 04:05:00 PM 30.2794 -94.2497 229° Southwest 347 399 14,100 -1,887 Descending Houston Center
Sun 04:05:49 PM 30.2394 -94.3064 231° Southwest 353 406 12,900 -1,189 Descending Houston Center
Sun 04:06:51 PM 30.1886 -94.4153 242° Southwest 327 376 11,900 -911 Descending Houston Center
Sun 04:07:08 PM 30.1831 -94.4439 257° West 326 375 11,700 -968 Descending Houston Center
Sun 04:07:53 PM 30.1717 -94.5183 260° West 327 376 10,900 -1,082 Descending Houston Center
Sun 04:08:09 PM 30.1639 -94.5503 254° West 325 374 10,600 -952 Descending Houston Center
Sun 04:08:56 PM 30.1553 -94.6175 262° West 322 371 9,900 -1,046 Descending Houston Center
Sun 04:09:58 PM 30.1406 -94.7072 259° West 301 346 8,700 -1,237 Descending Houston Center
Sun 04:11:07 PM 30.1172 -94.8269 257° West 302 348 7,200 -1,200 Descending Houston Center
Sun 04:12:08 PM 30.1042 -94.9108 260° West 264 304 6,100 -667 Descending Houston Center
Sun 04:13:04 PM 30.1058 -94.9903 271° West 266 306 5,900 -102 Descending Houston Center
Sun 04:14:06 PM 30.1064 -95.0733 270° West 263 303 5,900 77 Level Houston Center
Sun 04:14:22 PM 30.1053 -95.1017 267° West 253 291 6,000 97 Climbing Houston Center
Sun 04:15:08 PM 30.1064 -95.1525 271° West 254 292 6,000  Level Houston Center
Sun 04:16:10 PM 30.1069 -95.2261 271° West 241 277 6,000  Level Houston Center
Sun 04:17:12 PM 30.1072 -95.2994 270° West 233 268 6,000 -242 Level Houston Center
Sun 04:18:14 PM 30.1069 -95.3894 270° West 233 268 5,500 -629 Descending Houston Center
Sun 04:19:16 PM 30.0997 -95.4608 263° West 233 268 4,700 -774 Descending Houston Center

Login

Don't have an account? Register now (free) for customized features, flight alerts, and more!